sensor_id;sensor_type;location;lat;lon;timestamp;P1;durP1;ratioP1;P2;durP2;ratioP2
73779;SDS011;62093;37.614;15.072;2023-05-07T00:02:00;6.88;;;4.68;;
73779;SDS011;62093;37.614;15.072;2023-05-07T00:04:26;8.07;;;4.77;;
73779;SDS011;62093;37.614;15.072;2023-05-07T00:06:53;8.63;;;4.72;;
73779;SDS011;62093;37.614;15.072;2023-05-07T00:09:20;7.22;;;4.55;;
73779;SDS011;62093;37.614;15.072;2023-05-07T00:11:46;7.40;;;4.65;;
73779;SDS011;62093;37.614;15.072;2023-05-07T00:14:12;8.52;;;5.25;;
73779;SDS011;62093;37.614;15.072;2023-05-07T00:16:38;7.67;;;4.60;;
73779;SDS011;62093;37.614;15.072;2023-05-07T00:19:04;7.50;;;5.18;;
73779;SDS011;62093;37.614;15.072;2023-05-07T00:21:30;6.97;;;4.53;;
73779;SDS011;62093;37.614;15.072;2023-05-07T00:23:56;7.65;;;4.60;;
73779;SDS011;62093;37.614;15.072;2023-05-07T00:26:22;7.13;;;4.27;;
73779;SDS011;62093;37.614;15.072;2023-05-07T00:28:50;7.50;;;4.60;;
73779;SDS011;62093;37.614;15.072;2023-05-07T00:31:16;8.60;;;4.68;;
73779;SDS011;62093;37.614;15.072;2023-05-07T00:33:42;8.02;;;4.60;;
73779;SDS011;62093;37.614;15.072;2023-05-07T00:36:08;10.13;;;4.57;;
73779;SDS011;62093;37.614;15.072;2023-05-07T00:38:34;8.10;;;4.55;;
73779;SDS011;62093;37.614;15.072;2023-05-07T00:41:00;8.50;;;4.70;;
73779;SDS011;62093;37.614;15.072;2023-05-07T00:43:27;7.18;;;4.40;;
73779;SDS011;62093;37.614;15.072;2023-05-07T00:45:54;7.53;;;4.70;;
73779;SDS011;62093;37.614;15.072;2023-05-07T00:48:20;6.97;;;4.13;;
73779;SDS011;62093;37.614;15.072;2023-05-07T00:50:47;6.88;;;4.32;;
73779;SDS011;62093;37.614;15.072;2023-05-07T00:53:13;8.80;;;5.05;;
73779;SDS011;62093;37.614;15.072;2023-05-07T00:55:39;8.95;;;4.68;;
73779;SDS011;62093;37.614;15.072;2023-05-07T00:58:05;7.13;;;4.45;;
73779;SDS011;62093;37.614;15.072;2023-05-07T01:00:32;7.63;;;4.73;;
73779;SDS011;62093;37.614;15.072;2023-05-07T01:02:58;7.95;;;4.45;;
73779;SDS011;62093;37.614;15.072;2023-05-07T01:05:24;7.32;;;4.50;;
73779;SDS011;62093;37.614;15.072;2023-05-07T01:07:52;7.88;;;4.60;;
73779;SDS011;62093;37.614;15.072;2023-05-07T01:10:20;7.63;;;4.18;;
73779;SDS011;62093;37.614;15.072;2023-05-07T01:12:47;6.90;;;4.30;;
73779;SDS011;62093;37.614;15.072;2023-05-07T01:15:15;7.50;;;4.80;;
73779;SDS011;62093;37.614;15.072;2023-05-07T01:17:42;7.07;;;4.38;;
73779;SDS011;62093;37.614;15.072;2023-05-07T01:20:15;7.82;;;4.95;;
73779;SDS011;62093;37.614;15.072;2023-05-07T01:22:43;7.65;;;4.70;;
73779;SDS011;62093;37.614;15.072;2023-05-07T01:25:11;8.03;;;4.93;;
73779;SDS011;62093;37.614;15.072;2023-05-07T01:27:42;8.38;;;4.88;;
73779;SDS011;62093;37.614;15.072;2023-05-07T01:30:08;8.20;;;4.90;;
73779;SDS011;62093;37.614;15.072;2023-05-07T01:32:46;8.27;;;4.90;;
73779;SDS011;62093;37.614;15.072;2023-05-07T01:35:20;8.68;;;5.00;;
73779;SDS011;62093;37.614;15.072;2023-05-07T01:37:48;8.23;;;4.60;;
73779;SDS011;62093;37.614;15.072;2023-05-07T01:40:15;8.35;;;4.82;;
73779;SDS011;62093;37.614;15.072;2023-05-07T01:42:45;8.15;;;5.20;;
73779;SDS011;62093;37.614;15.072;2023-05-07T01:45:11;8.68;;;5.20;;
73779;SDS011;62093;37.614;15.072;2023-05-07T01:47:38;7.25;;;4.68;;
73779;SDS011;62093;37.614;15.072;2023-05-07T01:50:08;7.60;;;4.70;;
73779;SDS011;62093;37.614;15.072;2023-05-07T01:52:36;8.82;;;4.55;;
73779;SDS011;62093;37.614;15.072;2023-05-07T01:55:04;8.55;;;4.72;;
73779;SDS011;62093;37.614;15.072;2023-05-07T01:57:31;6.97;;;4.70;;
73779;SDS011;62093;37.614;15.072;2023-05-07T01:59:57;7.97;;;5.28;;
73779;SDS011;62093;37.614;15.072;2023-05-07T02:02:23;8.50;;;5.43;;
73779;SDS011;62093;37.614;15.072;2023-05-07T02:04:50;8.82;;;5.13;;
73779;SDS011;62093;37.614;15.072;2023-05-07T02:07:17;8.50;;;5.82;;
73779;SDS011;62093;37.614;15.072;2023-05-07T02:09:44;9.50;;;6.03;;
73779;SDS011;62093;37.614;15.072;2023-05-07T02:12:11;8.85;;;5.80;;
73779;SDS011;62093;37.614;15.072;2023-05-07T02:14:37;8.50;;;5.20;;
73779;SDS011;62093;37.614;15.072;2023-05-07T02:17:03;7.80;;;4.68;;
73779;SDS011;62093;37.614;15.072;2023-05-07T02:19:29;9.15;;;5.45;;
73779;SDS011;62093;37.614;15.072;2023-05-07T02:21:55;7.50;;;4.72;;
73779;SDS011;62093;37.614;15.072;2023-05-07T02:24:21;8.68;;;4.50;;
73779;SDS011;62093;37.614;15.072;2023-05-07T02:26:48;9.63;;;4.73;;
73779;SDS011;62093;37.614;15.072;2023-05-07T02:29:14;8.43;;;4.70;;
73779;SDS011;62093;37.614;15.072;2023-05-07T02:31:40;8.15;;;4.80;;
73779;SDS011;62093;37.614;15.072;2023-05-07T02:34:06;8.35;;;4.60;;
73779;SDS011;62093;37.614;15.072;2023-05-07T02:36:32;8.30;;;4.82;;
73779;SDS011;62093;37.614;15.072;2023-05-07T02:39:04;8.00;;;4.70;;
73779;SDS011;62093;37.614;15.072;2023-05-07T02:41:30;7.97;;;4.82;;
73779;SDS011;62093;37.614;15.072;2023-05-07T02:43:56;7.50;;;4.15;;
73779;SDS011;62093;37.614;15.072;2023-05-07T02:46:22;7.03;;;4.35;;
73779;SDS011;62093;37.614;15.072;2023-05-07T02:48:55;7.72;;;4.75;;
73779;SDS011;62093;37.614;15.072;2023-05-07T02:51:22;8.13;;;4.93;;
73779;SDS011;62093;37.614;15.072;2023-05-07T02:53:49;8.70;;;4.65;;
73779;SDS011;62093;37.614;15.072;2023-05-07T02:56:15;7.50;;;4.40;;
73779;SDS011;62093;37.614;15.072;2023-05-07T02:58:41;8.07;;;5.30;;
73779;SDS011;62093;37.614;15.072;2023-05-07T03:01:11;7.20;;;4.55;;
73779;SDS011;62093;37.614;15.072;2023-05-07T03:03:58;10.47;;;5.03;;
73779;SDS011;62093;37.614;15.072;2023-05-07T03:06:24;7.20;;;4.53;;
73779;SDS011;62093;37.614;15.072;2023-05-07T03:08:51;7.82;;;4.93;;
73779;SDS011;62093;37.614;15.072;2023-05-07T03:11:17;7.47;;;4.85;;
73779;SDS011;62093;37.614;15.072;2023-05-07T03:13:43;7.60;;;4.63;;
73779;SDS011;62093;37.614;15.072;2023-05-07T03:16:09;8.73;;;4.40;;
73779;SDS011;62093;37.614;15.072;2023-05-07T03:18:36;7.20;;;4.78;;
73779;SDS011;62093;37.614;15.072;2023-05-07T03:21:02;8.13;;;4.95;;
73779;SDS011;62093;37.614;15.072;2023-05-07T03:23:28;7.45;;;4.68;;
73779;SDS011;62093;37.614;15.072;2023-05-07T03:25:54;8.68;;;5.13;;
73779;SDS011;62093;37.614;15.072;2023-05-07T03:28:21;8.03;;;4.70;;
73779;SDS011;62093;37.614;15.072;2023-05-07T03:30:52;8.40;;;4.78;;
73779;SDS011;62093;37.614;15.072;2023-05-07T03:33:18;6.93;;;4.60;;
73779;SDS011;62093;37.614;15.072;2023-05-07T03:35:45;9.40;;;4.60;;
73779;SDS011;62093;37.614;15.072;2023-05-07T03:38:14;8.05;;;4.50;;
73779;SDS011;62093;37.614;15.072;2023-05-07T03:40:40;7.90;;;4.53;;
73779;SDS011;62093;37.614;15.072;2023-05-07T03:43:06;7.90;;;4.43;;
73779;SDS011;62093;37.614;15.072;2023-05-07T03:45:35;8.95;;;5.45;;
73779;SDS011;62093;37.614;15.072;2023-05-07T03:48:23;8.45;;;4.65;;
73779;SDS011;62093;37.614;15.072;2023-05-07T03:50:52;7.82;;;4.30;;
73779;SDS011;62093;37.614;15.072;2023-05-07T03:53:20;8.60;;;4.70;;
73779;SDS011;62093;37.614;15.072;2023-05-07T03:55:45;6.72;;;4.28;;
73779;SDS011;62093;37.614;15.072;2023-05-07T03:58:11;7.57;;;4.45;;
73779;SDS011;62093;37.614;15.072;2023-05-07T04:00:38;7.35;;;4.70;;
73779;SDS011;62093;37.614;15.072;2023-05-07T04:03:16;6.63;;;4.07;;
73779;SDS011;62093;37.614;15.072;2023-05-07T04:05:42;7.53;;;3.90;;
73779;SDS011;62093;37.614;15.072;2023-05-07T04:08:09;7.47;;;4.55;;
73779;SDS011;62093;37.614;15.072;2023-05-07T04:10:39;7.10;;;3.88;;
73779;SDS011;62093;37.614;15.072;2023-05-07T04:13:08;7.18;;;4.38;;
73779;SDS011;62093;37.614;15.072;2023-05-07T04:15:36;7.30;;;4.30;;
73779;SDS011;62093;37.614;15.072;2023-05-07T04:18:04;7.30;;;4.30;;
73779;SDS011;62093;37.614;15.072;2023-05-07T04:20:30;8.18;;;3.85;;
73779;SDS011;62093;37.614;15.072;2023-05-07T04:23:01;7.05;;;3.80;;
73779;SDS011;62093;37.614;15.072;2023-05-07T04:25:28;6.60;;;3.90;;
73779;SDS011;62093;37.614;15.072;2023-05-07T04:28:01;7.40;;;4.20;;
73779;SDS011;62093;37.614;15.072;2023-05-07T04:30:29;7.45;;;4.30;;
73779;SDS011;62093;37.614;15.072;2023-05-07T04:32:55;6.75;;;3.72;;
73779;SDS011;62093;37.614;15.072;2023-05-07T04:35:23;7.65;;;4.45;;
73779;SDS011;62093;37.614;15.072;2023-05-07T04:37:49;7.85;;;3.90;;
73779;SDS011;62093;37.614;15.072;2023-05-07T04:40:16;6.50;;;3.67;;
73779;SDS011;62093;37.614;15.072;2023-05-07T04:42:42;6.68;;;3.95;;
73779;SDS011;62093;37.614;15.072;2023-05-07T04:45:09;7.07;;;4.00;;
73779;SDS011;62093;37.614;15.072;2023-05-07T04:47:38;6.95;;;4.18;;
73779;SDS011;62093;37.614;15.072;2023-05-07T04:50:05;7.07;;;4.07;;
73779;SDS011;62093;37.614;15.072;2023-05-07T04:52:35;7.30;;;4.17;;
73779;SDS011;62093;37.614;15.072;2023-05-07T04:55:01;6.35;;;3.65;;
73779;SDS011;62093;37.614;15.072;2023-05-07T04:57:32;6.47;;;3.60;;
73779;SDS011;62093;37.614;15.072;2023-05-07T04:59:58;6.53;;;4.10;;
73779;SDS011;62093;37.614;15.072;2023-05-07T05:02:25;8.23;;;4.60;;
73779;SDS011;62093;37.614;15.072;2023-05-07T05:04:51;9.40;;;6.57;;
73779;SDS011;62093;37.614;15.072;2023-05-07T05:07:17;9.63;;;6.38;;
73779;SDS011;62093;37.614;15.072;2023-05-07T05:09:43;12.80;;;8.27;;
73779;SDS011;62093;37.614;15.072;2023-05-07T05:12:10;13.35;;;8.82;;
73779;SDS011;62093;37.614;15.072;2023-05-07T05:14:37;11.85;;;8.77;;
73779;SDS011;62093;37.614;15.072;2023-05-07T05:17:03;11.73;;;8.00;;
73779;SDS011;62093;37.614;15.072;2023-05-07T05:19:30;10.20;;;6.72;;
73779;SDS011;62093;37.614;15.072;2023-05-07T05:21:56;8.82;;;5.32;;
73779;SDS011;62093;37.614;15.072;2023-05-07T05:24:22;10.18;;;6.10;;
73779;SDS011;62093;37.614;15.072;2023-05-07T05:26:49;8.10;;;4.93;;
73779;SDS011;62093;37.614;15.072;2023-05-07T05:29:15;8.17;;;4.50;;
73779;SDS011;62093;37.614;15.072;2023-05-07T05:31:41;7.63;;;4.72;;
73779;SDS011;62093;37.614;15.072;2023-05-07T05:34:08;7.03;;;3.90;;
73779;SDS011;62093;37.614;15.072;2023-05-07T05:36:36;7.80;;;4.35;;
73779;SDS011;62093;37.614;15.072;2023-05-07T05:39:02;7.22;;;4.65;;
73779;SDS011;62093;37.614;15.072;2023-05-07T05:41:28;7.27;;;4.50;;
73779;SDS011;62093;37.614;15.072;2023-05-07T05:43:55;7.10;;;4.50;;
73779;SDS011;62093;37.614;15.072;2023-05-07T05:46:21;6.22;;;3.78;;
73779;SDS011;62093;37.614;15.072;2023-05-07T05:48:50;8.07;;;4.55;;
73779;SDS011;62093;37.614;15.072;2023-05-07T05:51:16;7.45;;;4.85;;
73779;SDS011;62093;37.614;15.072;2023-05-07T05:53:42;8.40;;;4.73;;
73779;SDS011;62093;37.614;15.072;2023-05-07T05:56:08;7.40;;;4.45;;
73779;SDS011;62093;37.614;15.072;2023-05-07T05:58:36;7.90;;;4.93;;
73779;SDS011;62093;37.614;15.072;2023-05-07T06:01:05;9.77;;;5.55;;
73779;SDS011;62093;37.614;15.072;2023-05-07T06:03:33;8.25;;;5.07;;
73779;SDS011;62093;37.614;15.072;2023-05-07T06:06:04;8.20;;;4.63;;
73779;SDS011;62093;37.614;15.072;2023-05-07T06:08:30;6.90;;;4.22;;
73779;SDS011;62093;37.614;15.072;2023-05-07T06:10:57;7.28;;;4.10;;
73779;SDS011;62093;37.614;15.072;2023-05-07T06:13:23;8.80;;;5.00;;
73779;SDS011;62093;37.614;15.072;2023-05-07T06:15:50;8.18;;;4.90;;
73779;SDS011;62093;37.614;15.072;2023-05-07T06:18:16;7.00;;;4.20;;
73779;SDS011;62093;37.614;15.072;2023-05-07T06:20:45;7.68;;;4.90;;
73779;SDS011;62093;37.614;15.072;2023-05-07T06:23:18;6.38;;;3.90;;
73779;SDS011;62093;37.614;15.072;2023-05-07T06:25:50;7.50;;;4.80;;
73779;SDS011;62093;37.614;15.072;2023-05-07T06:28:18;8.00;;;4.53;;
73779;SDS011;62093;37.614;15.072;2023-05-07T06:30:45;7.53;;;4.53;;
73779;SDS011;62093;37.614;15.072;2023-05-07T06:33:11;7.93;;;4.75;;
73779;SDS011;62093;37.614;15.072;2023-05-07T06:35:38;8.02;;;4.55;;
73779;SDS011;62093;37.614;15.072;2023-05-07T06:38:04;6.75;;;4.38;;
73779;SDS011;62093;37.614;15.072;2023-05-07T06:40:30;7.20;;;4.40;;
73779;SDS011;62093;37.614;15.072;2023-05-07T06:42:58;8.57;;;4.60;;
73779;SDS011;62093;37.614;15.072;2023-05-07T06:45:35;7.68;;;4.80;;
73779;SDS011;62093;37.614;15.072;2023-05-07T06:48:03;8.68;;;4.90;;
73779;SDS011;62093;37.614;15.072;2023-05-07T06:50:33;8.23;;;4.63;;
73779;SDS011;62093;37.614;15.072;2023-05-07T06:53:00;7.05;;;4.07;;
73779;SDS011;62093;37.614;15.072;2023-05-07T06:55:26;6.97;;;4.57;;
73779;SDS011;62093;37.614;15.072;2023-05-07T06:57:53;6.40;;;3.75;;
73779;SDS011;62093;37.614;15.072;2023-05-07T07:00:21;6.88;;;4.70;;
73779;SDS011;62093;37.614;15.072;2023-05-07T07:02:54;9.68;;;5.65;;
73779;SDS011;62093;37.614;15.072;2023-05-07T07:05:23;8.35;;;4.85;;
73779;SDS011;62093;37.614;15.072;2023-05-07T07:07:50;6.50;;;3.77;;
73779;SDS011;62093;37.614;15.072;2023-05-07T07:10:19;7.65;;;4.70;;
73779;SDS011;62093;37.614;15.072;2023-05-07T07:12:46;9.05;;;4.90;;
73779;SDS011;62093;37.614;15.072;2023-05-07T07:15:15;6.22;;;3.50;;
73779;SDS011;62093;37.614;15.072;2023-05-07T07:17:42;9.50;;;5.35;;
73779;SDS011;62093;37.614;15.072;2023-05-07T07:20:08;5.53;;;3.43;;
73779;SDS011;62093;37.614;15.072;2023-05-07T07:22:35;7.53;;;3.97;;
73779;SDS011;62093;37.614;15.072;2023-05-07T07:25:01;8.80;;;5.70;;
73779;SDS011;62093;37.614;15.072;2023-05-07T07:27:29;11.98;;;6.20;;
73779;SDS011;62093;37.614;15.072;2023-05-07T07:29:54;8.97;;;5.70;;
73779;SDS011;62093;37.614;15.072;2023-05-07T07:32:21;8.57;;;4.93;;
73779;SDS011;62093;37.614;15.072;2023-05-07T07:34:47;5.75;;;3.30;;
73779;SDS011;62093;37.614;15.072;2023-05-07T07:37:13;8.00;;;4.75;;
73779;SDS011;62093;37.614;15.072;2023-05-07T07:39:40;5.60;;;3.38;;
73779;SDS011;62093;37.614;15.072;2023-05-07T07:42:07;5.93;;;3.37;;
73779;SDS011;62093;37.614;15.072;2023-05-07T07:44:34;5.63;;;3.40;;
73779;SDS011;62093;37.614;15.072;2023-05-07T07:47:05;6.28;;;3.70;;
73779;SDS011;62093;37.614;15.072;2023-05-07T07:49:32;6.65;;;4.22;;
73779;SDS011;62093;37.614;15.072;2023-05-07T07:52:02;7.00;;;3.75;;
73779;SDS011;62093;37.614;15.072;2023-05-07T07:54:29;5.73;;;3.13;;
73779;SDS011;62093;37.614;15.072;2023-05-07T07:56:56;6.00;;;3.38;;
73779;SDS011;62093;37.614;15.072;2023-05-07T07:59:23;5.60;;;3.40;;
73779;SDS011;62093;37.614;15.072;2023-05-07T08:01:50;5.88;;;3.45;;
73779;SDS011;62093;37.614;15.072;2023-05-07T08:04:18;6.95;;;3.45;;
73779;SDS011;62093;37.614;15.072;2023-05-07T08:06:44;6.73;;;4.03;;
73779;SDS011;62093;37.614;15.072;2023-05-07T08:09:10;7.53;;;4.22;;
73779;SDS011;62093;37.614;15.072;2023-05-07T08:11:39;7.47;;;4.03;;
73779;SDS011;62093;37.614;15.072;2023-05-07T08:14:05;8.13;;;4.00;;
73779;SDS011;62093;37.614;15.072;2023-05-07T08:16:32;6.25;;;3.90;;
73779;SDS011;62093;37.614;15.072;2023-05-07T08:18:59;7.63;;;4.30;;
73779;SDS011;62093;37.614;15.072;2023-05-07T08:21:25;6.40;;;4.13;;
73779;SDS011;62093;37.614;15.072;2023-05-07T08:23:52;6.32;;;3.80;;
73779;SDS011;62093;37.614;15.072;2023-05-07T08:26:18;6.40;;;3.53;;
73779;SDS011;62093;37.614;15.072;2023-05-07T08:28:44;6.60;;;3.78;;
73779;SDS011;62093;37.614;15.072;2023-05-07T08:31:10;6.70;;;3.90;;
73779;SDS011;62093;37.614;15.072;2023-05-07T08:33:39;9.45;;;3.95;;
73779;SDS011;62093;37.614;15.072;2023-05-07T08:36:05;6.53;;;3.50;;
73779;SDS011;62093;37.614;15.072;2023-05-07T08:38:32;6.97;;;4.25;;
73779;SDS011;62093;37.614;15.072;2023-05-07T08:40:58;6.10;;;3.60;;
73779;SDS011;62093;37.614;15.072;2023-05-07T08:43:28;6.77;;;4.17;;
73779;SDS011;62093;37.614;15.072;2023-05-07T08:45:56;7.50;;;4.60;;
73779;SDS011;62093;37.614;15.072;2023-05-07T08:48:26;7.00;;;4.13;;
73779;SDS011;62093;37.614;15.072;2023-05-07T08:51:03;7.15;;;4.05;;
73779;SDS011;62093;37.614;15.072;2023-05-07T08:53:30;6.90;;;4.20;;
73779;SDS011;62093;37.614;15.072;2023-05-07T08:55:57;6.60;;;4.03;;
73779;SDS011;62093;37.614;15.072;2023-05-07T08:58:24;6.72;;;3.80;;
73779;SDS011;62093;37.614;15.072;2023-05-07T09:00:51;6.72;;;3.90;;
73779;SDS011;62093;37.614;15.072;2023-05-07T09:03:19;6.50;;;4.20;;
73779;SDS011;62093;37.614;15.072;2023-05-07T09:05:49;7.85;;;4.35;;
73779;SDS011;62093;37.614;15.072;2023-05-07T09:08:17;7.10;;;4.03;;
73779;SDS011;62093;37.614;15.072;2023-05-07T09:10:46;6.70;;;4.05;;
73779;SDS011;62093;37.614;15.072;2023-05-07T09:13:13;7.00;;;3.88;;
73779;SDS011;62093;37.614;15.072;2023-05-07T09:15:40;8.07;;;4.38;;
73779;SDS011;62093;37.614;15.072;2023-05-07T09:18:07;7.15;;;4.07;;
73779;SDS011;62093;37.614;15.072;2023-05-07T09:20:38;7.80;;;4.20;;
73779;SDS011;62093;37.614;15.072;2023-05-07T09:23:06;6.97;;;4.15;;
73779;SDS011;62093;37.614;15.072;2023-05-07T09:25:35;6.22;;;3.80;;
73779;SDS011;62093;37.614;15.072;2023-05-07T09:28:08;6.93;;;3.88;;
73779;SDS011;62093;37.614;15.072;2023-05-07T09:30:36;6.97;;;3.97;;
73779;SDS011;62093;37.614;15.072;2023-05-07T09:33:05;6.10;;;3.73;;
73779;SDS011;62093;37.614;15.072;2023-05-07T09:35:35;7.80;;;4.15;;
73779;SDS011;62093;37.614;15.072;2023-05-07T09:38:08;7.03;;;4.00;;
73779;SDS011;62093;37.614;15.072;2023-05-07T09:40:35;6.93;;;3.97;;
73779;SDS011;62093;37.614;15.072;2023-05-07T09:43:12;6.15;;;3.70;;
73779;SDS011;62093;37.614;15.072;2023-05-07T09:45:48;6.13;;;3.80;;
73779;SDS011;62093;37.614;15.072;2023-05-07T09:48:18;6.35;;;3.92;;
73779;SDS011;62093;37.614;15.072;2023-05-07T09:50:48;6.13;;;3.63;;
73779;SDS011;62093;37.614;15.072;2023-05-07T09:53:19;6.70;;;3.75;;
73779;SDS011;62093;37.614;15.072;2023-05-07T09:55:47;6.72;;;4.05;;
73779;SDS011;62093;37.614;15.072;2023-05-07T09:58:13;6.07;;;3.63;;
73779;SDS011;62093;37.614;15.072;2023-05-07T10:00:42;7.03;;;3.80;;
73779;SDS011;62093;37.614;15.072;2023-05-07T10:03:12;7.00;;;3.80;;
73779;SDS011;62093;37.614;15.072;2023-05-07T10:05:48;5.68;;;3.63;;
73779;SDS011;62093;37.614;15.072;2023-05-07T10:08:16;6.00;;;3.60;;
73779;SDS011;62093;37.614;15.072;2023-05-07T10:10:47;7.30;;;4.00;;
73779;SDS011;62093;37.614;15.072;2023-05-07T10:13:19;6.00;;;3.50;;
73779;SDS011;62093;37.614;15.072;2023-05-07T10:15:48;6.68;;;3.60;;
73779;SDS011;62093;37.614;15.072;2023-05-07T10:18:16;6.10;;;3.60;;
73779;SDS011;62093;37.614;15.072;2023-05-07T10:20:49;7.03;;;3.78;;
73779;SDS011;62093;37.614;15.072;2023-05-07T10:23:19;7.10;;;4.13;;
73779;SDS011;62093;37.614;15.072;2023-05-07T10:25:50;6.65;;;3.70;;
73779;SDS011;62093;37.614;15.072;2023-05-07T10:28:21;6.20;;;3.50;;
73779;SDS011;62093;37.614;15.072;2023-05-07T10:33:36;8.40;;;3.70;;
73779;SDS011;62093;37.614;15.072;2023-05-07T10:36:04;6.03;;;3.50;;
73779;SDS011;62093;37.614;15.072;2023-05-07T10:38:33;7.07;;;3.75;;
73779;SDS011;62093;37.614;15.072;2023-05-07T10:41:00;6.28;;;3.63;;
73779;SDS011;62093;37.614;15.072;2023-05-07T10:43:39;6.45;;;3.70;;
73779;SDS011;62093;37.614;15.072;2023-05-07T10:46:19;6.47;;;3.95;;
73779;SDS011;62093;37.614;15.072;2023-05-07T10:51:28;6.32;;;3.83;;
73779;SDS011;62093;37.614;15.072;2023-05-07T10:56:49;6.65;;;3.80;;
73779;SDS011;62093;37.614;15.072;2023-05-07T11:01:59;5.70;;;3.53;;
73779;SDS011;62093;37.614;15.072;2023-05-07T11:04:43;7.07;;;3.83;;
73779;SDS011;62093;37.614;15.072;2023-05-07T11:07:26;5.88;;;3.47;;
73779;SDS011;62093;37.614;15.072;2023-05-07T11:09:58;6.63;;;3.47;;
73779;SDS011;62093;37.614;15.072;2023-05-07T11:12:56;6.45;;;3.60;;
73779;SDS011;62093;37.614;15.072;2023-05-07T11:15:38;7.00;;;4.07;;
73779;SDS011;62093;37.614;15.072;2023-05-07T11:18:14;6.38;;;3.40;;
73779;SDS011;62093;37.614;15.072;2023-05-07T11:26:16;6.38;;;3.80;;
73779;SDS011;62093;37.614;15.072;2023-05-07T11:28:44;6.83;;;3.73;;
73779;SDS011;62093;37.614;15.072;2023-05-07T11:31:10;6.35;;;3.70;;
73779;SDS011;62093;37.614;15.072;2023-05-07T11:33:38;6.03;;;3.60;;
73779;SDS011;62093;37.614;15.072;2023-05-07T11:36:08;6.05;;;3.83;;
73779;SDS011;62093;37.614;15.072;2023-05-07T11:38:39;6.45;;;3.83;;
73779;SDS011;62093;37.614;15.072;2023-05-07T11:41:06;7.03;;;3.73;;
73779;SDS011;62093;37.614;15.072;2023-05-07T11:43:33;6.03;;;3.90;;
73779;SDS011;62093;37.614;15.072;2023-05-07T11:48:37;6.72;;;3.92;;
73779;SDS011;62093;37.614;15.072;2023-05-07T11:51:05;6.85;;;3.33;;
73779;SDS011;62093;37.614;15.072;2023-05-07T11:53:35;6.57;;;3.63;;
73779;SDS011;62093;37.614;15.072;2023-05-07T11:56:07;6.82;;;3.33;;
73779;SDS011;62093;37.614;15.072;2023-05-07T11:58:37;6.40;;;3.67;;
73779;SDS011;62093;37.614;15.072;2023-05-07T12:01:04;6.22;;;3.55;;
73779;SDS011;62093;37.614;15.072;2023-05-07T12:03:32;5.97;;;3.67;;
73779;SDS011;62093;37.614;15.072;2023-05-07T12:05:59;5.93;;;3.57;;
73779;SDS011;62093;37.614;15.072;2023-05-07T12:08:25;6.35;;;3.88;;
73779;SDS011;62093;37.614;15.072;2023-05-07T12:10:52;5.68;;;3.22;;
73779;SDS011;62093;37.614;15.072;2023-05-07T12:13:18;5.93;;;3.42;;
73779;SDS011;62093;37.614;15.072;2023-05-07T12:15:45;6.65;;;3.50;;
73779;SDS011;62093;37.614;15.072;2023-05-07T12:18:11;6.00;;;3.40;;
73779;SDS011;62093;37.614;15.072;2023-05-07T12:20:38;7.55;;;3.72;;
73779;SDS011;62093;37.614;15.072;2023-05-07T12:23:04;6.30;;;3.30;;
73779;SDS011;62093;37.614;15.072;2023-05-07T12:25:34;6.32;;;3.63;;
73779;SDS011;62093;37.614;15.072;2023-05-07T12:28:02;6.13;;;3.42;;
73779;SDS011;62093;37.614;15.072;2023-05-07T12:30:39;6.83;;;3.97;;
73779;SDS011;62093;37.614;15.072;2023-05-07T12:33:05;6.30;;;3.70;;
73779;SDS011;62093;37.614;15.072;2023-05-07T12:35:32;5.72;;;3.40;;
73779;SDS011;62093;37.614;15.072;2023-05-07T12:38:08;5.68;;;3.40;;
73779;SDS011;62093;37.614;15.072;2023-05-07T12:40:36;6.47;;;3.90;;
73779;SDS011;62093;37.614;15.072;2023-05-07T12:43:15;5.97;;;3.67;;
73779;SDS011;62093;37.614;15.072;2023-05-07T12:45:45;5.90;;;3.38;;
73779;SDS011;62093;37.614;15.072;2023-05-07T12:48:13;5.90;;;3.60;;
73779;SDS011;62093;37.614;15.072;2023-05-07T12:50:39;7.50;;;3.42;;
73779;SDS011;62093;37.614;15.072;2023-05-07T12:53:06;6.38;;;3.58;;
73779;SDS011;62093;37.614;15.072;2023-05-07T12:55:46;7.20;;;3.90;;
73779;SDS011;62093;37.614;15.072;2023-05-07T12:58:17;6.55;;;3.67;;
73779;SDS011;62093;37.614;15.072;2023-05-07T13:00:46;5.85;;;3.80;;
73779;SDS011;62093;37.614;15.072;2023-05-07T13:03:24;5.90;;;3.80;;
73779;SDS011;62093;37.614;15.072;2023-05-07T13:05:55;7.05;;;3.40;;
73779;SDS011;62093;37.614;15.072;2023-05-07T13:08:31;6.33;;;3.53;;
73779;SDS011;62093;37.614;15.072;2023-05-07T13:11:00;6.85;;;3.70;;
73779;SDS011;62093;37.614;15.072;2023-05-07T13:13:32;6.80;;;3.47;;
73779;SDS011;62093;37.614;15.072;2023-05-07T13:16:00;6.18;;;3.60;;
73779;SDS011;62093;37.614;15.072;2023-05-07T13:18:27;6.47;;;3.33;;
73779;SDS011;62093;37.614;15.072;2023-05-07T13:20:54;5.87;;;3.10;;
73779;SDS011;62093;37.614;15.072;2023-05-07T13:23:20;5.95;;;3.53;;
73779;SDS011;62093;37.614;15.072;2023-05-07T13:25:47;7.47;;;3.63;;
73779;SDS011;62093;37.614;15.072;2023-05-07T13:28:15;5.80;;;3.58;;
73779;SDS011;62093;37.614;15.072;2023-05-07T13:30:42;6.68;;;3.33;;
73779;SDS011;62093;37.614;15.072;2023-05-07T13:33:08;5.43;;;3.23;;
73779;SDS011;62093;37.614;15.072;2023-05-07T13:35:35;6.25;;;3.83;;
73779;SDS011;62093;37.614;15.072;2023-05-07T13:38:01;5.70;;;3.20;;
73779;SDS011;62093;37.614;15.072;2023-05-07T13:40:27;6.13;;;3.50;;
73779;SDS011;62093;37.614;15.072;2023-05-07T13:42:54;6.68;;;3.58;;
73779;SDS011;62093;37.614;15.072;2023-05-07T13:45:22;6.20;;;3.47;;
73779;SDS011;62093;37.614;15.072;2023-05-07T13:47:51;6.05;;;3.45;;
73779;SDS011;62093;37.614;15.072;2023-05-07T13:50:17;6.45;;;3.20;;
73779;SDS011;62093;37.614;15.072;2023-05-07T13:52:44;6.53;;;3.60;;
73779;SDS011;62093;37.614;15.072;2023-05-07T13:55:17;5.70;;;3.28;;
73779;SDS011;62093;37.614;15.072;2023-05-07T13:57:44;5.87;;;3.23;;
73779;SDS011;62093;37.614;15.072;2023-05-07T14:00:11;5.60;;;3.20;;
73779;SDS011;62093;37.614;15.072;2023-05-07T14:02:43;6.85;;;3.20;;
73779;SDS011;62093;37.614;15.072;2023-05-07T14:05:09;5.95;;;3.63;;
73779;SDS011;62093;37.614;15.072;2023-05-07T14:07:36;6.07;;;3.30;;
73779;SDS011;62093;37.614;15.072;2023-05-07T14:10:03;5.93;;;3.30;;
73779;SDS011;62093;37.614;15.072;2023-05-07T14:12:29;5.35;;;2.78;;
73779;SDS011;62093;37.614;15.072;2023-05-07T14:14:55;6.03;;;3.40;;
73779;SDS011;62093;37.614;15.072;2023-05-07T14:17:21;6.57;;;3.50;;
73779;SDS011;62093;37.614;15.072;2023-05-07T14:19:50;6.72;;;3.42;;
73779;SDS011;62093;37.614;15.072;2023-05-07T14:22:19;6.00;;;3.30;;
73779;SDS011;62093;37.614;15.072;2023-05-07T14:24:47;6.63;;;3.03;;
73779;SDS011;62093;37.614;15.072;2023-05-07T14:27:14;5.95;;;3.20;;
73779;SDS011;62093;37.614;15.072;2023-05-07T14:29:41;6.10;;;3.08;;
73779;SDS011;62093;37.614;15.072;2023-05-07T14:32:09;6.25;;;2.95;;
73779;SDS011;62093;37.614;15.072;2023-05-07T14:34:35;5.83;;;3.20;;
73779;SDS011;62093;37.614;15.072;2023-05-07T14:37:01;5.47;;;3.40;;
73779;SDS011;62093;37.614;15.072;2023-05-07T14:39:27;4.95;;;3.05;;
73779;SDS011;62093;37.614;15.072;2023-05-07T14:41:53;5.47;;;3.20;;
73779;SDS011;62093;37.614;15.072;2023-05-07T14:44:21;5.70;;;3.13;;
73779;SDS011;62093;37.614;15.072;2023-05-07T14:46:47;5.90;;;3.30;;
73779;SDS011;62093;37.614;15.072;2023-05-07T14:49:14;6.03;;;3.00;;
73779;SDS011;62093;37.614;15.072;2023-05-07T14:51:43;5.90;;;3.40;;
73779;SDS011;62093;37.614;15.072;2023-05-07T14:54:12;5.70;;;3.45;;
73779;SDS011;62093;37.614;15.072;2023-05-07T14:56:39;5.70;;;3.13;;
73779;SDS011;62093;37.614;15.072;2023-05-07T14:59:05;5.53;;;3.07;;